^^
Grace C. Lehan Memorial Weather Station Historical Data
Daily Summary for August 13, 2022 Units:  Metric    English   Both
Daily Weekly Monthly Yearly
  High: Low: Average:
Temperature: 25.3 °C 15.6 °C 20.1 °C
Dew Point: 14.2 °C 10.4 °C 12.1 °C
Humidity: 78.3% 45.2% 61%
Wind Speed: 7.2km/h 0km/h 1km/h
Wind Gust: 22.5km/h - -
Wind- - SW
Pressure: 1018.2 hPa 1016.1 hPa -
Precipitation: 0 mm    
 
 
Tabular Data for August 13, 2022
Time Temperature Dew Point Pressure Wind Wind Speed Wind Gust Humidity Rainfall Rate (Hourly) solar
00:00 19.3 °C 10.4 °C 1016.1 hPa Calm   3.2 km/h 56.3% 0 mm 0 W/m2
00:09 19.2 °C 10.5 °C 1016.5 hPa Calm     57% 0 mm 0 W/m2
00:14 19.2 °C 10.6 °C 1016.5 hPa NNW 0.6 km/h 6.4 km/h 57.4% 0 mm 0 W/m2
00:19 19.1 °C 10.7 °C 1016.5 hPa Calm   6.4 km/h 58% 0 mm 0 W/m2
00:24 19.1 °C 10.6 °C 1016.5 hPa Calm   6.4 km/h 58% 0 mm 0 W/m2
00:29 19 °C 10.7 °C 1016.5 hPa NNW 0.3 km/h 6.4 km/h 58.5% 0 mm 0 W/m2
00:34 18.9 °C 10.8 °C 1016.8 hPa NNW 0.8 km/h 6.4 km/h 59% 0 mm 0 W/m2
00:39 18.9 °C 10.7 °C 1016.8 hPa NNW 0.3 km/h 4.8 km/h 59% 0 mm 0 W/m2
00:44 18.8 °C 10.7 °C 1016.8 hPa NNW 0.3 km/h 4.8 km/h 59% 0 mm 0 W/m2
00:49 18.8 °C 10.8 °C 1016.8 hPa NNW 0.2 km/h 4.8 km/h 59.8% 0 mm 0 W/m2
00:54 18.8 °C 10.9 °C 1016.8 hPa Calm   4.8 km/h 60% 0 mm 0 W/m2
00:59 18.8 °C 10.9 °C 1016.8 hPa Calm   4.8 km/h 60% 0 mm 0 W/m2
01:04 18.8 °C 10.8 °C 1016.8 hPa Calm   4.8 km/h 60% 0 mm 0 W/m2
01:09 18.7 °C 11 °C 1016.8 hPa Calm   1.6 km/h 61% 0 mm 0 W/m2
01:14 18.6 °C 10.9 °C 1016.8 hPa Calm   1.6 km/h 61% 0 mm 0 W/m2
01:19 18.6 °C 11 °C 1016.8 hPa NNW 0.3 km/h 6.4 km/h 61.5% 0 mm 0 W/m2
01:24 18.5 °C 11.1 °C 1016.8 hPa Calm   6.4 km/h 62% 0 mm 0 W/m2
01:29 18.4 °C 11.1 °C 1017.2 hPa Calm   6.4 km/h 62% 0 mm 0 W/m2
01:34 18.4 °C 10.9 °C 1017.2 hPa NNW 0.6 km/h 6.4 km/h 62% 0 mm 0 W/m2
01:39 18.3 °C 11.1 °C 1016.8 hPa Calm   6.4 km/h 62.8% 0 mm 0 W/m2
01:44 18.3 °C 11.1 °C 1016.8 hPa Calm   6.4 km/h 63% 0 mm 0 W/m2
01:49 18.2 °C 11.1 °C 1016.8 hPa NW 0.6 km/h 8 km/h 63% 0 mm 0 W/m2
01:54 18.1 °C 11.2 °C 1016.8 hPa Calm   8 km/h 63.9% 0 mm 0 W/m2
01:59 18.1 °C 11.2 °C 1016.8 hPa NW 0.6 km/h 8 km/h 64.1% 0 mm 0 W/m2
02:04 18 °C 11.1 °C 1016.8 hPa NW 0.6 km/h 9.7 km/h 64.3% 0 mm 0 W/m2
02:09 17.9 °C 11.3 °C 1016.8 hPa Calm   9.7 km/h 65% 0 mm 0 W/m2
02:14 17.8 °C 11.2 °C 1016.8 hPa Calm   9.7 km/h 65% 0 mm 0 W/m2
02:19 17.8 °C 11.1 °C 1016.8 hPa Calm   9.7 km/h 65% 0 mm 0 W/m2
02:24 17.8 °C 11.3 °C 1016.8 hPa Calm   9.7 km/h 65.8% 0 mm 0 W/m2
02:29 17.7 °C 11.3 °C 1016.8 hPa Calm   9.7 km/h 66% 0 mm 0 W/m2
02:34 17.7 °C 11.3 °C 1016.5 hPa NNW 0.2 km/h 9.7 km/h 66.3% 0 mm 0 W/m2
02:39 17.6 °C 11.3 °C 1016.5 hPa Calm   4.8 km/h 66.7% 0 mm 0 W/m2
02:44 17.6 °C 11.3 °C 1016.5 hPa Calm   4.8 km/h 67% 0 mm 0 W/m2
02:49 17.5 °C 11.3 °C 1016.5 hPa Calm   4.8 km/h 67% 0 mm 0 W/m2
02:54 17.4 °C 11.4 °C 1016.5 hPa Calm   4.8 km/h 67.6% 0 mm 0 W/m2
02:59 17.4 °C 11.4 °C 1016.5 hPa Calm   4.8 km/h 68% 0 mm 0 W/m2
03:04 17.3 °C 11.4 °C 1016.8 hPa Calm   4.8 km/h 68% 0 mm 0 W/m2
03:09 17.3 °C 11.3 °C 1016.8 hPa Calm     68% 0 mm 0 W/m2
03:14 17.2 °C 11.3 °C 1016.8 hPa Calm     68.2% 0 mm 0 W/m2
03:19 17.2 °C 11.4 °C 1016.8 hPa NNW 0.2 km/h 4.8 km/h 68.7% 0 mm 0 W/m2
03:24 17.2 °C 11.4 °C 1016.8 hPa Calm   4.8 km/h 69% 0 mm 0 W/m2
03:29 17.1 °C 11.4 °C 1016.8 hPa Calm   4.8 km/h 69% 0 mm 0 W/m2
03:34 17.1 °C 11.5 °C 1016.8 hPa Calm   4.8 km/h 69.7% 0 mm 0 W/m2
03:39 17 °C 11.5 °C 1016.8 hPa Calm     70% 0 mm 0 W/m2
03:44 16.9 °C 11.4 °C 1016.8 hPa Calm     70% 0 mm 0 W/m2
03:49 16.9 °C 11.4 °C 1016.8 hPa Calm     70% 0 mm 0 W/m2
03:54 16.8 °C 11.6 °C 1016.8 hPa Calm     71% 0 mm 0 W/m2
03:59 16.8 °C 11.5 °C 1016.8 hPa Calm     71% 0 mm 0 W/m2
04:00 16.8 °C 11.5 °C 1016.8 hPa Calm     71% 0 mm 0 W/m2
04:09 16.7 °C 11.6 °C 1017.2 hPa Calm     72% 0 mm 0 W/m2
04:14 16.6 °C 11.6 °C 1017.2 hPa Calm     72% 0 mm 0 W/m2
04:19 16.6 °C 11.6 °C 1017.2 hPa Calm     72.5% 0 mm 0 W/m2
04:24 16.5 °C 11.6 °C 1017.2 hPa Calm     73% 0 mm 0 W/m2
04:29 16.4 °C 11.6 °C 1017.2 hPa Calm     73% 0 mm 0 W/m2
04:34 16.3 °C 11.6 °C 1017.2 hPa Calm     73.3% 0 mm 0 W/m2
04:39 16.3 °C 11.6 °C 1017.2 hPa Calm     74% 0 mm 0 W/m2
04:44 16.2 °C 11.6 °C 1017.2 hPa Calm     74% 0 mm 0 W/m2
04:49 16.2 °C 11.5 °C 1017.5 hPa Calm     74% 0 mm 0 W/m2
04:54 16.1 °C 11.6 °C 1017.5 hPa Calm     74.7% 0 mm 0 W/m2
04:59 16.1 °C 11.6 °C 1017.5 hPa Calm     75% 0 mm 0 W/m2
05:04 16.1 °C 11.6 °C 1017.5 hPa Calm     75% 0 mm 0 W/m2
05:09 16 °C 11.6 °C 1017.5 hPa Calm     75% 0 mm 0 W/m2
05:14 16 °C 11.6 °C 1017.5 hPa Calm     75% 0 mm 0 W/m2
05:19 16 °C 11.6 °C 1017.5 hPa Calm     75% 0 mm 0 W/m2
05:24 15.9 °C 11.5 °C 1017.5 hPa Calm     75% 0 mm 0 W/m2
05:29 15.9 °C 11.6 °C 1017.5 hPa Calm     75.4% 0 mm 0 W/m2
05:34 15.9 °C 11.7 °C 1017.5 hPa Calm     76% 0 mm 0 W/m2
05:39 15.8 °C 11.7 °C 1017.5 hPa Calm     76% 0 mm 0 W/m2
05:44 15.8 °C 11.6 °C 1017.5 hPa Calm     76% 0 mm 0 W/m2
05:49 15.8 °C 11.6 °C 1017.5 hPa Calm   1.6 km/h 76% 0 mm 0 W/m2
05:54 15.8 °C 11.6 °C 1017.5 hPa Calm   1.6 km/h 76% 0 mm 0 W/m2
05:59 15.7 °C 11.5 °C 1017.5 hPa Calm   1.6 km/h 76% 0 mm 0 W/m2
06:04 15.7 °C 11.5 °C 1017.5 hPa Calm   1.6 km/h 76% 0 mm 0 W/m2
06:09 15.7 °C 11.4 °C 1017.5 hPa Calm     76% 0 mm 0 W/m2
06:14 15.7 °C 11.4 °C 1017.8 hPa Calm     76% 0 mm 5 W/m2
06:19 15.6 °C 11.4 °C 1017.8 hPa Calm     76% 0 mm 5 W/m2
06:24 15.6 °C 11.4 °C 1017.8 hPa NNW 0.2 km/h 4.8 km/h 76% 0 mm 7 W/m2
06:29 15.6 °C 11.6 °C 1017.8 hPa NNW 0.3 km/h 4.8 km/h 76.9% 0 mm 9 W/m2
06:34 15.6 °C 11.6 °C 1017.8 hPa Calm   4.8 km/h 77% 0 mm 12 W/m2
06:39 15.6 °C 11.6 °C 1017.8 hPa Calm     77% 0 mm 44 W/m2
06:44 15.6 °C 11.6 °C 1017.8 hPa Calm     77% 0 mm 79 W/m2
06:49 15.6 °C 11.8 °C 1017.8 hPa Calm     78% 0 mm 79 W/m2
06:54 15.8 °C 12 °C 1017.8 hPa Calm     78.3% 0 mm 162 W/m2
06:59 16 °C 12.1 °C 1017.8 hPa Calm     77.6% 0 mm 206 W/m2
07:04 16.4 °C 12.3 °C 1017.8 hPa Calm     76.9% 0 mm 248 W/m2
07:09 17 °C 12.7 °C 1017.8 hPa Calm     75.6% 0 mm 248 W/m2
07:14 17.7 °C 12.8 °C 1018.2 hPa Calm     72.8% 0 mm 274 W/m2
07:19 18.4 °C 12.8 °C 1018.2 hPa Calm     69.8% 0 mm 221 W/m2
07:24 18.9 °C 12.9 °C 1018.2 hPa Calm     68.1% 0 mm 239 W/m2
07:29 19.3 °C 13 °C 1018.2 hPa NNW 0.2 km/h 4.8 km/h 66.8% 0 mm 255 W/m2
07:34 19.8 °C 13 °C 1018.2 hPa NNW 0.3 km/h 4.8 km/h 64.9% 0 mm 272 W/m2
07:39 20 °C 12.9 °C 1018.2 hPa North 0.2 km/h 4.8 km/h 63.9% 0 mm 288 W/m2
07:44 20.1 °C 12.7 °C 1018.2 hPa WNW 1.8 km/h 12.9 km/h 62.5% 0 mm 306 W/m2
07:49 20.1 °C 12.9 °C 1018.2 hPa North 1.8 km/h 12.9 km/h 63.3% 0 mm 323 W/m2
07:54 20.1 °C 12.9 °C 1018.2 hPa Calm   12.9 km/h 63.2% 0 mm 341 W/m2
07:59 20.2 °C 12.9 °C 1018.2 hPa NNW 1.3 km/h 14.5 km/h 63% 0 mm 362 W/m2
08:00 20.2 °C 12.9 °C 1018.2 hPa Calm   14.5 km/h 63% 0 mm 362 W/m2
08:09 20.1 °C 12.7 °C 1018.2 hPa ENE 2.3 km/h 11.3 km/h 62.6% 0 mm 397 W/m2
08:14 20 °C 12.8 °C 1018.2 hPa NW 1.8 km/h 11.3 km/h 63% 0 mm 411 W/m2
08:19 20.1 °C 12.9 °C 1018.2 hPa NNE 1.1 km/h 11.3 km/h 63.3% 0 mm 427 W/m2
08:24 20.3 °C 13.1 °C 1018.2 hPa ENE 0.3 km/h 11.3 km/h 63.5% 0 mm 443 W/m2
08:29 20.5 °C 13.2 °C 1018.2 hPa East 0.5 km/h 11.3 km/h 62.8% 0 mm 455 W/m2
08:34 20.7 °C 13.3 °C 1018.2 hPa East 0.8 km/h 11.3 km/h 62.5% 0 mm 475 W/m2
08:39 21 °C 13.7 °C 1018.2 hPa NE 2.3 km/h 16.1 km/h 62.9% 0 mm 489 W/m2
08:44 21.3 °C 13.6 °C 1018.2 hPa NNW 2.4 km/h 16.1 km/h 61.3% 0 mm 510 W/m2
08:49 21.6 °C 13.8 °C 1018.2 hPa North 0.6 km/h 16.1 km/h 61.4% 0 mm 520 W/m2
08:54 21.7 °C 13.8 °C 1018.2 hPa ENE 1.9 km/h 16.1 km/h 60.6% 0 mm 533 W/m2
08:59 21.6 °C 13.9 °C 1018.2 hPa NNE 0.2 km/h 16.1 km/h 61.5% 0 mm 547 W/m2
09:04 21.9 °C 14 °C 1018.2 hPa North 1.3 km/h 16.1 km/h 60.9% 0 mm 563 W/m2
09:09 22.2 °C 14 °C 1018.2 hPa NNW 1.4 km/h 11.3 km/h 59.7% 0 mm 577 W/m2
09:14 22.4 °C 14 °C 1018.2 hPa NE 2.1 km/h 14.5 km/h 58.8% 0 mm 592 W/m2
09:19 22.7 °C 13.8 °C 1018.2 hPa East 1.6 km/h 14.5 km/h 57.4% 0 mm 606 W/m2
09:24 22.7 °C 13.9 °C 1018.2 hPa ENE 1.6 km/h 14.5 km/h 57.6% 0 mm 619 W/m2
09:30 22.6 °C 14.2 °C 1018.2 hPa ENE 1.6 km/h 17.7 km/h 59% 0 mm 592 W/m2
10:00 22.3 °C 13.4 °C 1018.2 hPa ENE 3.2 km/h 19.3 km/h 57% 0 mm 676 W/m2
11:00 25 °C 13.6 °C 1017.8 hPa WNW 3.2 km/h 20.9 km/h 49% 0 mm 820 W/m2
11:30 24.4 °C 12.7 °C 1017.8 hPa NW 3.2 km/h 17.7 km/h 48% 0 mm 596 W/m2
12:04 24.1 °C 11.9 °C 1017.8 hPa Calm   3.2 km/h 46.3% 0 mm 323 W/m2
12:09 24 °C 12.3 °C 1017.8 hPa NW 1.1 km/h 6.4 km/h 48% 0 mm 455 W/m2
12:14 24 °C 12.3 °C 1017.8 hPa NW 3.7 km/h 17.7 km/h 48% 0 mm 476 W/m2
12:19 24 °C 11.9 °C 1017.8 hPa WNW 2.3 km/h 17.7 km/h 46.8% 0 mm 591 W/m2
12:24 24 °C 11.9 °C 1017.8 hPa NW 7.2 km/h 22.5 km/h 46.7% 0 mm 503 W/m2
12:29 24 °C 12.1 °C 1017.8 hPa NW 1.4 km/h 22.5 km/h 47.2% 0 mm 1209 W/m2
12:34 24.3 °C 12.4 °C 1017.8 hPa NW 3.2 km/h 22.5 km/h 47.7% 0 mm 1209 W/m2
12:39 24.3 °C 12.7 °C 1017.8 hPa ENE 3.5 km/h 19.3 km/h 48.3% 0 mm 155 W/m2
12:44 24.1 °C 12.7 °C 1017.8 hPa NE 1.3 km/h 19.3 km/h 48.9% 0 mm 220 W/m2
12:49 23.8 °C 12.7 °C 1017.8 hPa NW 5.6 km/h 19.3 km/h 49.9% 0 mm 287 W/m2
12:54 23.6 °C 12.6 °C 1017.8 hPa NW 4.5 km/h 19.3 km/h 50.2% 0 mm 388 W/m2
12:59 23.4 °C 12.5 °C 1017.8 hPa NW 2.7 km/h 19.3 km/h 50.2% 0 mm 434 W/m2
13:04 23.5 °C 12.8 °C 1017.5 hPa NW 1.1 km/h 19.3 km/h 51% 0 mm 1095 W/m2
13:09 23.8 °C 12.7 °C 1017.5 hPa NW 1.8 km/h 11.3 km/h 49.7% 0 mm 1005 W/m2
13:14 24.2 °C 12.7 °C 1017.5 hPa NW 2.1 km/h 14.5 km/h 48.5% 0 mm 1055 W/m2
13:19 24.4 °C 12.6 °C 1017.2 hPa WNW 2.4 km/h 16.1 km/h 47.7% 0 mm 334 W/m2
13:24 24.6 °C 12.8 °C 1017.2 hPa NW 1.6 km/h 16.1 km/h 48% 0 mm 1195 W/m2
13:29 24.7 °C 12.7 °C 1017.2 hPa NNE 1 km/h 16.1 km/h 47.2% 0 mm 425 W/m2
13:34 24.7 °C 12.8 °C 1017.2 hPa ENE 4.3 km/h 16.1 km/h 47.5% 0 mm 489 W/m2
13:39 24.7 °C 12.9 °C 1017.2 hPa NNW 2.4 km/h 16.1 km/h 47.8% 0 mm 489 W/m2
13:44 24.7 °C 12.9 °C 1017.2 hPa NNW 1.4 km/h 16.1 km/h 47.8% 0 mm 548 W/m2
13:49 24.7 °C 13.1 °C 1017.2 hPa NNW 1.9 km/h 16.1 km/h 48.3% 0 mm 464 W/m2
13:54 24.6 °C 13.2 °C 1017.2 hPa NNW 1.3 km/h 16.1 km/h 49% 0 mm 1141 W/m2
13:59 24.7 °C 12.9 °C 1017.2 hPa NW 3.9 km/h 16.1 km/h 47.7% 0 mm 1141 W/m2
14:04 24.8 °C 13.1 °C 1017.2 hPa NW 1.9 km/h 16.1 km/h 47.8% 0 mm 1067 W/m2
14:09 25.2 °C 12.9 °C 1017.2 hPa WNW 6.4 km/h 19.3 km/h 46.3% 0 mm 1176 W/m2
14:14 25.3 °C 12.8 °C 1017.2 hPa NW 4.7 km/h 19.3 km/h 45.8% 0 mm 371 W/m2
14:19 25.3 °C 13.1 °C 1017.2 hPa NW 2.6 km/h 19.3 km/h 46.6% 0 mm 1194 W/m2
14:24 25.3 °C 12.6 °C 1016.8 hPa ENE 3.7 km/h 19.3 km/h 45.2% 0 mm 1116 W/m2
14:29 25.2 °C 12.4 °C 1016.8 hPa NNW 2.9 km/h 19.3 km/h 45.2% 0 mm 1116 W/m2
14:34 25.1 °C 12.7 °C 1016.8 hPa NNW 2.6 km/h 19.3 km/h 46.2% 0 mm 223 W/m2
14:39 24.9 °C 12.6 °C 1016.8 hPa North 2.7 km/h 14.5 km/h 46% 0 mm 207 W/m2
14:44 24.7 °C 12.6 °C 1016.8 hPa NW 3.2 km/h 14.5 km/h 46.7% 0 mm 229 W/m2
14:49 24.6 °C 12.6 °C 1016.8 hPa NW 2.7 km/h 14.5 km/h 47.2% 0 mm 257 W/m2
14:54 24.4 °C 12.6 °C 1016.8 hPa WNW 1.6 km/h 14.5 km/h 47.6% 0 mm 1004 W/m2
14:59 24.5 °C 12.4 °C 1016.8 hPa NNW 1.8 km/h 14.5 km/h 46.9% 0 mm 1025 W/m2
15:04 24.7 °C 12.6 °C 1016.5 hPa NNE 4.5 km/h 16.1 km/h 46.8% 0 mm 997 W/m2
15:09 25.1 °C 12.9 °C 1016.5 hPa NNW 1.8 km/h 16.1 km/h 46.9% 0 mm 441 W/m2
15:14 25.3 °C 12.7 °C 1016.5 hPa NE 2.9 km/h 16.1 km/h 45.4% 0 mm 441 W/m2
15:19 25.2 °C 12.7 °C 1016.5 hPa ENE 0.2 km/h 16.1 km/h 45.7% 0 mm 320 W/m2
15:24 25.2 °C 12.8 °C 1016.5 hPa NNW 2.9 km/h 16.1 km/h 46.1% 0 mm 380 W/m2
15:29 25.1 °C 12.6 °C 1016.5 hPa North 1.1 km/h 16.1 km/h 45.7% 0 mm 457 W/m2
15:34 25.1 °C 12.4 °C 1016.5 hPa WNW 3.4 km/h 16.1 km/h 45.5% 0 mm 524 W/m2
15:39 25.2 °C 12.7 °C 1016.5 hPa ENE 0.5 km/h 9.7 km/h 45.8% 0 mm 403 W/m2
15:44 25.3 °C 12.7 °C 1016.5 hPa NNE 1.6 km/h 9.7 km/h 45.7% 0 mm 262 W/m2
15:49 25.2 °C 12.6 °C 1016.1 hPa ENE 1.9 km/h 9.7 km/h 45.5% 0 mm 244 W/m2
15:54 25.1 °C 12.7 °C 1016.1 hPa ENE 1.3 km/h 9.7 km/h 46.2% 0 mm 250 W/m2
15:59 24.9 °C 12.3 °C 1016.1 hPa ENE 1 km/h 9.7 km/h 45.4% 0 mm 239 W/m2
Hartford County Weather
Compliments of Weather Underground - 2 mb